createdAt,value
2023-04-03T00:02:02.772Z,57.16
2023-04-03T00:05:05.540Z,56.97
2023-04-03T00:08:08.923Z,57.14
2023-04-03T00:11:11.126Z,57.41
2023-04-03T00:14:12.576Z,57.57
2023-04-03T00:17:14.086Z,57.10
2023-04-03T00:20:15.600Z,56.89
2023-04-03T00:23:17.247Z,56.69
2023-04-03T00:26:18.804Z,56.19
2023-04-03T00:29:20.823Z,56.46
2023-04-03T00:32:22.326Z,56.06
2023-04-03T00:35:25.295Z,56.58
2023-04-03T00:38:27.383Z,55.94
2023-04-03T00:41:28.969Z,56.21
2023-04-03T00:44:36.477Z,55.87
2023-04-03T00:47:40.531Z,55.86
2023-04-03T00:50:44.508Z,55.52
2023-04-03T00:53:49.958Z,55.88
2023-04-03T00:56:54.320Z,55.58
2023-04-03T01:00:02.640Z,55.18
2023-04-03T01:03:04.589Z,55.20
2023-04-03T01:06:06.861Z,55.07
2023-04-03T01:09:08.619Z,54.76
2023-04-03T01:12:19.678Z,54.92
2023-04-03T01:15:25.516Z,55.30
2023-04-03T01:18:27.556Z,54.64
2023-04-03T01:21:55.564Z,54.42
2023-04-03T01:24:57.054Z,55.04
2023-04-03T01:27:58.634Z,54.66
2023-04-03T01:31:32.494Z,54.63
2023-04-03T01:34:34.171Z,54.43
2023-04-03T01:37:36.136Z,54.80
2023-04-03T01:40:38.328Z,54.84
2023-04-03T01:43:40.455Z,55.12
2023-04-03T01:46:43.219Z,54.92
2023-04-03T01:49:44.928Z,54.47
2023-04-03T01:52:46.612Z,54.86
2023-04-03T01:55:49.129Z,54.27
2023-04-03T01:58:50.664Z,54.38
2023-04-03T02:01:52.719Z,54.49
2023-04-03T02:04:54.318Z,54.57
2023-04-03T02:07:57.363Z,54.67
2023-04-03T02:10:58.912Z,54.69
2023-04-03T02:14:00.673Z,54.65
2023-04-03T02:17:06.256Z,54.17
2023-04-03T02:20:08.541Z,54.24
2023-04-03T02:23:10.713Z,54.64
2023-04-03T02:26:14.743Z,54.43
2023-04-03T02:29:16.402Z,54.88
2023-04-03T02:32:17.916Z,54.64
2023-04-03T02:35:21.135Z,54.48
2023-04-03T02:38:24.961Z,54.85
2023-04-03T02:41:29.362Z,54.72
2023-04-03T02:44:31.377Z,55.00
2023-04-03T02:47:33.253Z,55.02
2023-04-03T02:50:34.969Z,54.73
2023-04-03T02:53:36.584Z,54.90
2023-04-03T02:56:44.702Z,55.14
2023-04-03T02:59:46.227Z,55.75
2023-04-03T03:02:49.734Z,55.13
2023-04-03T03:05:51.355Z,55.46
2023-04-03T03:08:53.287Z,55.75
2023-04-03T03:11:55.196Z,54.87
2023-04-03T03:14:56.723Z,55.06
2023-04-03T03:17:58.204Z,54.68
2023-04-03T03:21:01.701Z,54.83
2023-04-03T03:24:03.712Z,55.10
2023-04-03T03:27:05.267Z,54.83
2023-04-03T03:30:07.478Z,54.84
2023-04-03T03:33:09.456Z,54.92
2023-04-03T03:36:11.758Z,55.26
2023-04-03T03:39:13.373Z,54.91
2023-04-03T03:42:14.938Z,54.13
2023-04-03T03:45:16.618Z,54.69
2023-04-03T03:48:18.179Z,54.69
2023-04-03T03:51:19.862Z,54.49
2023-04-03T03:54:21.468Z,53.92
2023-04-03T03:57:23.159Z,53.92
2023-04-03T04:00:24.766Z,54.38
2023-04-03T04:03:30.382Z,53.69
2023-04-03T04:06:32.032Z,53.82
2023-04-03T04:09:38.728Z,54.18
2023-04-03T04:12:40.735Z,54.63
2023-04-03T04:15:43.772Z,53.81
2023-04-03T04:18:45.358Z,54.15
2023-04-03T04:21:47.280Z,54.30
2023-04-03T04:24:49.542Z,53.75
2023-04-03T04:27:51.244Z,53.93
2023-04-03T04:30:53.266Z,54.07
2023-04-03T04:33:56.090Z,54.18
2023-04-03T04:36:57.900Z,54.66
2023-04-03T04:40:00.894Z,54.04
2023-04-03T04:43:02.642Z,54.18
2023-04-03T04:46:08.430Z,53.85
2023-04-03T04:49:14.656Z,54.22
2023-04-03T04:52:16.199Z,54.16
2023-04-03T04:55:18.071Z,54.09
2023-04-03T04:58:20.816Z,53.81
2023-04-03T05:01:22.900Z,53.99
2023-04-03T05:04:31.860Z,53.33
2023-04-03T05:07:39.975Z,54.20
2023-04-03T05:10:42.406Z,53.70
2023-04-03T05:13:45.757Z,54.00
2023-04-03T05:16:50.201Z,53.31
2023-04-03T05:19:53.532Z,53.60
2023-04-03T05:22:57.296Z,53.52
2023-04-03T05:25:59.102Z,53.32
2023-04-03T05:29:01.107Z,53.29
2023-04-03T05:32:03.436Z,53.62
2023-04-03T05:35:06.742Z,53.58
2023-04-03T05:38:08.761Z,53.38
2023-04-03T05:41:10.492Z,53.16
2023-04-03T05:44:12.407Z,52.98
2023-04-03T05:47:14.556Z,52.90
2023-04-03T05:50:16.503Z,52.96
2023-04-03T05:53:29.271Z,52.51
2023-04-03T05:56:33.819Z,52.28
2023-04-03T05:59:35.970Z,52.17
2023-04-03T06:02:37.723Z,51.54
2023-04-03T06:05:39.536Z,52.01
2023-04-03T06:08:42.366Z,51.61
2023-04-03T06:11:44.193Z,51.08
2023-04-03T06:14:45.838Z,51.40
2023-04-03T06:17:49.375Z,51.04
2023-04-03T06:20:51.412Z,50.40
2023-04-03T06:23:53.145Z,49.52
2023-04-03T06:26:54.676Z,49.54
2023-04-03T06:29:56.489Z,49.31
2023-04-03T06:32:57.979Z,49.15
2023-04-03T06:35:59.873Z,48.71
2023-04-03T06:39:02.631Z,48.43
2023-04-03T06:42:04.183Z,48.05
2023-04-03T06:45:12.825Z,47.66
2023-04-03T06:48:14.380Z,47.18
2023-04-03T06:51:27.740Z,47.21
2023-04-03T06:54:29.286Z,46.65
2023-04-03T06:57:30.806Z,46.69
2023-04-03T07:00:32.431Z,46.12
2023-04-03T07:03:34.549Z,46.20
2023-04-03T07:06:37.141Z,46.08
2023-04-03T07:09:38.587Z,45.95
2023-04-03T07:12:40.097Z,45.91
2023-04-03T07:15:41.526Z,45.51
2023-04-03T07:18:43.046Z,44.98
2023-04-03T07:21:45.522Z,45.94
2023-04-03T07:24:47.069Z,44.80
2023-04-03T07:27:50.053Z,44.57
2023-04-03T07:30:54.078Z,44.50
2023-04-03T07:33:55.578Z,44.06
2023-04-03T07:36:57.532Z,43.88
2023-04-03T07:40:00.031Z,43.47
2023-04-03T07:43:02.118Z,43.03
2023-04-03T07:46:06.229Z,43.24
2023-04-03T07:49:07.878Z,42.84
2023-04-03T07:52:10.076Z,43.06
2023-04-03T07:55:11.846Z,43.34
2023-04-03T07:58:16.548Z,43.04
2023-04-03T08:01:18.061Z,43.03
2023-04-03T08:04:19.576Z,43.56
2023-04-03T08:07:21.885Z,43.55
2023-04-03T08:10:23.349Z,43.56
2023-04-03T08:13:24.959Z,43.56
2023-04-03T08:16:27.873Z,43.30
2023-04-03T08:19:29.424Z,43.66
2023-04-03T08:22:31.605Z,43.71
2023-04-03T08:25:33.494Z,43.53
2023-04-03T08:28:35.331Z,43.60
2023-04-03T08:31:36.868Z,43.17
2023-04-03T08:34:40.372Z,42.99
2023-04-03T08:37:41.940Z,42.57
2023-04-03T08:40:43.489Z,42.62
2023-04-03T08:43:58.665Z,42.63
2023-04-03T08:47:25.259Z,41.88
2023-04-03T08:50:34.291Z,41.88
2023-04-03T08:53:43.292Z,41.80
2023-04-03T08:56:44.886Z,41.58
2023-04-03T08:59:46.459Z,41.69
2023-04-03T09:02:54.034Z,41.79
2023-04-03T09:06:00.951Z,41.83
2023-04-03T09:09:27.746Z,42.36
2023-04-03T09:12:35.590Z,42.85
2023-04-03T09:15:39.432Z,42.51
2023-04-03T09:18:49.810Z,42.27
2023-04-03T09:21:56.968Z,41.70
2023-04-03T09:25:06.875Z,40.98
2023-04-03T09:28:10.847Z,40.40
2023-04-03T09:31:21.599Z,40.09
2023-04-03T09:34:24.282Z,39.34
2023-04-03T09:37:34.920Z,39.26
2023-04-03T09:40:43.201Z,38.71
2023-04-03T09:43:54.323Z,38.31
2023-04-03T09:46:55.870Z,38.72
2023-04-03T09:50:15.523Z,38.42
2023-04-03T09:53:46.250Z,37.93
2023-04-03T09:56:56.564Z,37.97
2023-04-03T10:00:01.018Z,38.31
2023-04-03T10:03:04.052Z,38.76
2023-04-03T10:06:24.091Z,38.25
2023-04-03T10:09:34.129Z,38.61
2023-04-03T10:12:35.761Z,38.19
2023-04-03T10:15:43.848Z,38.20
2023-04-03T10:19:14.387Z,37.95
2023-04-03T10:22:44.057Z,38.18
2023-04-03T10:26:17.216Z,37.57
2023-04-03T10:29:46.250Z,37.82
2023-04-03T10:33:06.022Z,38.69
2023-04-03T10:36:18.774Z,38.48
2023-04-03T10:39:46.561Z,38.25
2023-04-03T10:43:07.423Z,38.28
2023-04-03T10:46:21.507Z,38.59
2023-04-03T10:49:57.129Z,38.86
2023-04-03T10:53:27.737Z,38.60
2023-04-03T10:56:38.032Z,39.02
2023-04-03T10:59:59.604Z,38.46
2023-04-03T11:03:07.325Z,38.98
2023-04-03T11:06:11.915Z,38.86
2023-04-03T11:09:25.711Z,38.34
2023-04-03T11:12:44.143Z,37.76
2023-04-03T11:15:50.946Z,37.74
2023-04-03T11:19:18.829Z,37.10
2023-04-03T11:22:31.573Z,38.33
2023-04-03T11:25:37.933Z,38.01
2023-04-03T11:28:40.772Z,37.83
2023-04-03T11:32:07.681Z,38.31
2023-04-03T11:35:10.670Z,38.26
2023-04-03T11:38:37.314Z,37.98
2023-04-03T11:41:38.960Z,37.83
2023-04-03T11:44:40.542Z,37.99
2023-04-03T11:48:24.794Z,37.65
2023-04-03T11:51:29.489Z,38.28
2023-04-03T11:54:46.712Z,38.87
2023-04-03T11:58:03.377Z,38.45
2023-04-03T12:01:07.816Z,38.00
2023-04-03T12:04:15.011Z,38.37
2023-04-03T12:07:19.910Z,38.17
2023-04-03T12:10:32.779Z,38.36
2023-04-03T12:13:40.917Z,38.49
2023-04-03T12:16:42.385Z,38.58
2023-04-03T12:19:45.879Z,38.98
2023-04-03T12:23:28.441Z,38.77
2023-04-03T12:26:54.491Z,39.09
2023-04-03T12:30:08.089Z,38.16
2023-04-03T12:33:25.119Z,37.24
2023-04-03T12:36:41.591Z,37.07
2023-04-03T12:39:53.702Z,37.88
2023-04-03T12:43:08.613Z,38.35
2023-04-03T12:46:10.941Z,38.57
2023-04-03T12:49:19.193Z,38.23
2023-04-03T12:52:42.385Z,39.17
2023-04-03T12:55:44.140Z,38.66
2023-04-03T12:58:45.830Z,38.78
2023-04-03T13:01:59.425Z,38.65
2023-04-03T13:05:11.028Z,38.54
2023-04-03T13:08:16.820Z,38.53
2023-04-03T13:11:21.303Z,38.45
2023-04-03T13:14:24.927Z,38.47
2023-04-03T13:17:28.584Z,38.17
2023-04-03T13:20:35.470Z,38.39
2023-04-03T13:23:41.757Z,38.46
2023-04-03T13:26:44.291Z,38.51
2023-04-03T13:29:52.355Z,38.88
2023-04-03T13:32:55.497Z,38.82
2023-04-03T13:36:02.816Z,38.47
2023-04-03T13:39:22.080Z,37.93
2023-04-03T13:42:28.466Z,38.43
2023-04-03T13:45:31.575Z,38.40
2023-04-03T13:48:39.216Z,38.63
2023-04-03T13:51:40.818Z,38.55
2023-04-03T13:54:48.089Z,38.33
2023-04-03T13:58:20.317Z,38.16
2023-04-03T14:01:23.515Z,38.12
2023-04-03T14:04:29.924Z,38.13
2023-04-03T14:07:32.141Z,38.45
2023-04-03T14:10:33.867Z,38.79
2023-04-03T14:13:35.434Z,38.47
2023-04-03T14:16:41.903Z,38.77
2023-04-03T14:19:44.065Z,38.65
2023-04-03T14:22:45.760Z,38.60
2023-04-03T14:25:47.407Z,38.12
2023-04-03T14:28:53.146Z,38.41
2023-04-03T14:32:07.405Z,38.25
2023-04-03T14:35:14.045Z,38.82
2023-04-03T14:38:30.993Z,39.17
2023-04-03T14:41:32.459Z,39.20
2023-04-03T14:44:33.970Z,38.87
2023-04-03T14:47:41.888Z,39.13
2023-04-03T14:50:51.669Z,39.58
2023-04-03T14:54:00.144Z,39.49
2023-04-03T14:57:02.682Z,39.12
2023-04-03T15:00:05.809Z,39.42
2023-04-03T15:03:07.381Z,39.18
2023-04-03T15:06:12.613Z,39.32
2023-04-03T15:09:26.818Z,39.61
2023-04-03T15:12:28.360Z,39.62
2023-04-03T15:15:31.090Z,39.40
2023-04-03T15:18:38.761Z,38.98
2023-04-03T15:21:40.764Z,38.58
2023-04-03T15:24:42.997Z,38.65
2023-04-03T15:27:45.298Z,38.76
2023-04-03T15:30:47.153Z,38.97
2023-04-03T15:33:48.702Z,39.34
2023-04-03T15:36:53.376Z,39.38
2023-04-03T15:39:55.171Z,39.53
2023-04-03T15:42:56.629Z,39.45
2023-04-03T15:46:00.409Z,39.48
2023-04-03T15:49:02.364Z,39.57
2023-04-03T15:52:04.708Z,39.45
2023-04-03T15:55:07.441Z,39.66
2023-04-03T15:58:09.631Z,39.65
2023-04-03T16:01:12.335Z,39.12
2023-04-03T16:04:15.605Z,38.89
2023-04-03T16:07:17.479Z,38.85
2023-04-03T16:10:19.360Z,38.29
2023-04-03T16:13:20.951Z,38.58
2023-04-03T16:16:24.537Z,38.57
2023-04-03T16:19:26.418Z,38.78
2023-04-03T16:22:29.947Z,38.36
2023-04-03T16:25:31.998Z,38.30
2023-04-03T16:28:33.599Z,38.58
2023-04-03T16:31:35.309Z,38.84
2023-04-03T16:34:36.884Z,39.23
2023-04-03T16:37:40.359Z,39.31
2023-04-03T16:40:42.295Z,39.21
2023-04-03T16:46:50.259Z,39.35
2023-04-03T16:49:51.923Z,39.34
2023-04-03T16:52:53.586Z,39.65
2023-04-03T16:55:55.629Z,39.69
2023-04-03T16:58:57.133Z,40.10
2023-04-03T17:01:58.693Z,40.28
2023-04-03T17:05:00.274Z,40.90
2023-04-03T17:08:02.773Z,40.92
2023-04-03T17:11:04.370Z,40.57
2023-04-03T17:14:06.426Z,40.64
2023-04-03T17:17:08.875Z,40.85
2023-04-03T17:20:11.311Z,41.21
2023-04-03T17:23:12.865Z,40.68
2023-04-03T17:26:14.329Z,40.56
2023-04-03T17:29:16.132Z,40.92
2023-04-03T17:32:17.786Z,40.80
2023-04-03T17:35:19.372Z,41.23
2023-04-03T17:38:20.852Z,41.22
2023-04-03T17:41:22.919Z,41.39
2023-04-03T17:44:24.464Z,41.70
2023-04-03T17:47:25.923Z,41.51
2023-04-03T17:50:28.693Z,41.05
2023-04-03T17:53:30.291Z,41.00
2023-04-03T17:56:31.937Z,41.07
2023-04-03T17:59:33.453Z,41.07
2023-04-03T18:02:34.938Z,41.50
2023-04-03T18:05:38.047Z,41.52
2023-04-03T18:08:47.042Z,41.16
2023-04-03T18:11:49.739Z,41.60
2023-04-03T18:14:51.300Z,41.49
2023-04-03T18:17:56.585Z,41.33
2023-04-03T18:20:58.420Z,41.16
2023-04-03T18:24:00.035Z,41.82
2023-04-03T18:27:15.428Z,41.90
2023-04-03T18:30:17.961Z,42.43
2023-04-03T18:33:19.543Z,42.37
2023-04-03T18:36:21.625Z,42.28
2023-04-03T18:39:24.773Z,42.56
2023-04-03T18:42:27.206Z,43.31
2023-04-03T18:45:29.107Z,42.86
2023-04-03T18:48:31.322Z,42.51
2023-04-03T18:51:32.966Z,43.25
2023-04-03T18:54:34.745Z,42.73
2023-04-03T18:57:36.226Z,43.38
2023-04-03T19:00:38.678Z,43.54
2023-04-03T19:03:40.919Z,43.73
2023-04-03T19:06:42.689Z,43.55
2023-04-03T19:09:44.425Z,43.15
2023-04-03T19:12:47.063Z,44.30
2023-04-03T19:15:48.926Z,45.43
2023-04-03T19:18:50.510Z,44.69
2023-04-03T19:21:52.094Z,44.87
2023-04-03T19:24:53.568Z,44.19
2023-04-03T19:27:55.101Z,44.12
2023-04-03T19:30:58.214Z,44.66
2023-04-03T19:34:00.436Z,44.50
2023-04-03T19:37:02.477Z,44.37
2023-04-03T19:40:04.846Z,44.91
2023-04-03T19:43:06.402Z,44.87
2023-04-03T19:46:09.197Z,44.83
2023-04-03T19:49:10.873Z,46.46
2023-04-03T19:52:12.384Z,46.15
2023-04-03T19:55:14.781Z,47.21
2023-04-03T19:58:16.332Z,47.47
2023-04-03T20:01:17.802Z,47.39
2023-04-03T20:04:19.443Z,47.85
2023-04-03T20:07:21.261Z,47.49
2023-04-03T20:10:22.722Z,47.40
2023-04-03T20:13:24.140Z,48.26
2023-04-03T20:16:26.225Z,48.30
2023-04-03T20:19:28.159Z,48.26
2023-04-03T20:22:32.241Z,48.65
2023-04-03T20:28:38.514Z,48.93
2023-04-03T20:31:42.000Z,48.67
2023-04-03T20:34:48.221Z,48.99
2023-04-03T20:37:59.615Z,49.01
2023-04-03T20:41:01.439Z,48.88
2023-04-03T20:44:03.634Z,49.17
2023-04-03T20:47:05.637Z,49.50
2023-04-03T20:50:08.171Z,49.46
2023-04-03T20:53:09.774Z,49.68
2023-04-03T20:56:12.148Z,49.53
2023-04-03T20:59:15.592Z,50.06
2023-04-03T21:02:17.499Z,50.17
2023-04-03T21:05:24.156Z,49.91
2023-04-03T21:09:03.350Z,49.27
2023-04-03T21:12:42.350Z,48.98
2023-04-03T21:15:47.762Z,48.98
2023-04-03T21:19:00.683Z,48.96
2023-04-03T21:22:02.409Z,48.58
2023-04-03T21:25:04.150Z,49.14
2023-04-03T21:28:06.094Z,48.64
2023-04-03T21:31:07.657Z,47.87
2023-04-03T21:34:09.232Z,47.00
2023-04-03T21:37:11.817Z,46.28
2023-04-03T21:40:13.512Z,46.41
2023-04-03T21:43:15.067Z,46.37
2023-04-03T21:46:17.014Z,46.36
2023-04-03T21:49:18.500Z,46.58
2023-04-03T21:52:19.963Z,46.87
2023-04-03T21:55:21.427Z,47.11
2023-04-03T21:58:41.041Z,47.92
2023-04-03T22:01:43.228Z,47.99
2023-04-03T22:04:47.015Z,48.17
2023-04-03T22:07:48.772Z,48.63
2023-04-03T22:10:50.416Z,48.48
2023-04-03T22:13:53.243Z,48.79
2023-04-03T22:16:54.783Z,49.99
2023-04-03T22:19:56.307Z,49.78
2023-04-03T22:22:57.775Z,49.63
2023-04-03T22:26:07.616Z,49.98
2023-04-03T22:29:09.141Z,49.83
2023-04-03T22:32:10.672Z,49.74
2023-04-03T22:35:12.498Z,49.23
2023-04-03T22:38:15.377Z,47.55
2023-04-03T22:41:17.326Z,47.71
2023-04-03T22:44:18.820Z,47.35
2023-04-03T22:47:20.257Z,47.19
2023-04-03T22:50:21.929Z,47.68
2023-04-03T22:53:23.473Z,47.82
2023-04-03T22:56:26.212Z,47.73
2023-04-03T22:59:27.872Z,48.53
2023-04-03T23:02:29.411Z,49.42
2023-04-03T23:05:31.053Z,52.03
2023-04-03T23:08:34.878Z,52.41
2023-04-03T23:11:36.660Z,52.45
2023-04-03T23:14:38.094Z,52.74
2023-04-03T23:17:39.558Z,52.54
2023-04-03T23:20:41.440Z,51.98
2023-04-03T23:23:43.084Z,52.49
2023-04-03T23:26:44.490Z,52.25
2023-04-03T23:29:46.041Z,52.35
2023-04-03T23:32:48.197Z,51.96
2023-04-03T23:35:49.692Z,52.52
2023-04-03T23:38:51.362Z,51.91
2023-04-03T23:41:53.312Z,51.41
2023-04-03T23:44:54.789Z,51.11
2023-04-03T23:47:56.237Z,51.43
2023-04-03T23:50:57.777Z,51.21
2023-04-03T23:53:59.253Z,50.98
2023-04-03T23:57:01.136Z,51.19
